sensor_id;sensor_type;location;lat;lon;timestamp;P1;durP1;ratioP1;P2;durP2;ratioP2
57615;SDS011;43816;52.054;-9.494;2023-04-24T00:00:06;3.50;;;2.47;;
57615;SDS011;43816;52.054;-9.494;2023-04-24T00:00:17;3.65;;;2.45;;
57615;SDS011;43816;52.054;-9.494;2023-04-24T00:00:27;3.10;;;2.20;;
57615;SDS011;43816;52.054;-9.494;2023-04-24T00:00:38;3.67;;;2.28;;
57615;SDS011;43816;52.054;-9.494;2023-04-24T00:00:48;3.67;;;2.30;;
57615;SDS011;43816;52.054;-9.494;2023-04-24T00:01:19;3.83;;;2.40;;
57615;SDS011;43816;52.054;-9.494;2023-04-24T00:01:29;3.00;;;2.25;;
57615;SDS011;43816;52.054;-9.494;2023-04-24T00:01:39;2.83;;;2.17;;
57615;SDS011;43816;52.054;-9.494;2023-04-24T00:01:50;2.63;;;2.20;;
57615;SDS011;43816;52.054;-9.494;2023-04-24T00:02:03;2.63;;;2.13;;
57615;SDS011;43816;52.054;-9.494;2023-04-24T00:02:13;3.13;;;2.22;;
57615;SDS011;43816;52.054;-9.494;2023-04-24T00:02:27;3.20;;;2.40;;
57615;SDS011;43816;52.054;-9.494;2023-04-24T00:02:38;3.05;;;2.22;;
57615;SDS011;43816;52.054;-9.494;2023-04-24T00:02:48;3.20;;;2.20;;
57615;SDS011;43816;52.054;-9.494;2023-04-24T00:02:58;3.05;;;2.10;;
57615;SDS011;43816;52.054;-9.494;2023-04-24T00:03:09;3.07;;;2.20;;
57615;SDS011;43816;52.054;-9.494;2023-04-24T00:03:19;2.90;;;2.00;;
57615;SDS011;43816;52.054;-9.494;2023-04-24T00:03:29;3.20;;;2.10;;
57615;SDS011;43816;52.054;-9.494;2023-04-24T00:03:40;3.23;;;2.17;;
57615;SDS011;43816;52.054;-9.494;2023-04-24T00:03:50;3.85;;;2.22;;
57615;SDS011;43816;52.054;-9.494;2023-04-24T00:04:01;3.70;;;2.30;;
57615;SDS011;43816;52.054;-9.494;2023-04-24T00:04:11;3.40;;;2.10;;
57615;SDS011;43816;52.054;-9.494;2023-04-24T00:04:21;3.13;;;2.13;;
57615;SDS011;43816;52.054;-9.494;2023-04-24T00:04:32;3.97;;;2.13;;
57615;SDS011;43816;52.054;-9.494;2023-04-24T00:04:45;4.00;;;2.40;;
57615;SDS011;43816;52.054;-9.494;2023-04-24T00:04:56;3.75;;;2.30;;
57615;SDS011;43816;52.054;-9.494;2023-04-24T00:05:09;2.97;;;2.13;;
57615;SDS011;43816;52.054;-9.494;2023-04-24T00:05:19;2.80;;;2.10;;
57615;SDS011;43816;52.054;-9.494;2023-04-24T00:05:38;2.75;;;2.20;;
57615;SDS011;43816;52.054;-9.494;2023-04-24T00:05:49;2.67;;;2.20;;
57615;SDS011;43816;52.054;-9.494;2023-04-24T00:06:05;2.72;;;2.22;;
57615;SDS011;43816;52.054;-9.494;2023-04-24T00:06:16;3.00;;;2.42;;
57615;SDS011;43816;52.054;-9.494;2023-04-24T00:06:26;3.10;;;2.50;;
57615;SDS011;43816;52.054;-9.494;2023-04-24T00:06:39;3.60;;;2.53;;
57615;SDS011;43816;52.054;-9.494;2023-04-24T00:06:50;3.33;;;2.35;;
57615;SDS011;43816;52.054;-9.494;2023-04-24T00:07:00;3.10;;;2.27;;
57615;SDS011;43816;52.054;-9.494;2023-04-24T00:07:11;2.72;;;2.10;;
57615;SDS011;43816;52.054;-9.494;2023-04-24T00:07:25;2.70;;;2.08;;
57615;SDS011;43816;52.054;-9.494;2023-04-24T00:07:35;3.00;;;2.03;;
57615;SDS011;43816;52.054;-9.494;2023-04-24T00:07:46;3.17;;;2.17;;
57615;SDS011;43816;52.054;-9.494;2023-04-24T00:07:56;3.67;;;2.20;;
57615;SDS011;43816;52.054;-9.494;2023-04-24T00:08:18;3.90;;;2.30;;
57615;SDS011;43816;52.054;-9.494;2023-04-24T00:08:46;3.13;;;2.22;;
57615;SDS011;43816;52.054;-9.494;2023-04-24T00:08:57;3.17;;;2.20;;
57615;SDS011;43816;52.054;-9.494;2023-04-24T00:09:13;3.40;;;2.40;;
57615;SDS011;43816;52.054;-9.494;2023-04-24T00:09:23;3.65;;;2.50;;
57615;SDS011;43816;52.054;-9.494;2023-04-24T00:09:34;4.15;;;2.67;;
57615;SDS011;43816;52.054;-9.494;2023-04-24T00:09:44;4.87;;;2.70;;
57615;SDS011;43816;52.054;-9.494;2023-04-24T00:09:54;4.57;;;2.70;;
57615;SDS011;43816;52.054;-9.494;2023-04-24T00:10:05;3.90;;;2.60;;
57615;SDS011;43816;52.054;-9.494;2023-04-24T00:10:16;4.07;;;2.60;;
57615;SDS011;43816;52.054;-9.494;2023-04-24T00:10:26;3.60;;;2.55;;
57615;SDS011;43816;52.054;-9.494;2023-04-24T00:10:37;3.53;;;2.30;;
57615;SDS011;43816;52.054;-9.494;2023-04-24T00:10:47;2.75;;;2.30;;
57615;SDS011;43816;52.054;-9.494;2023-04-24T00:10:58;2.90;;;2.40;;
57615;SDS011;43816;52.054;-9.494;2023-04-24T00:11:08;3.03;;;2.50;;
57615;SDS011;43816;52.054;-9.494;2023-04-24T00:11:21;3.55;;;2.50;;
57615;SDS011;43816;52.054;-9.494;2023-04-24T00:11:32;3.42;;;2.35;;
57615;SDS011;43816;52.054;-9.494;2023-04-24T00:11:42;3.72;;;2.30;;
57615;SDS011;43816;52.054;-9.494;2023-04-24T00:11:56;3.65;;;2.33;;
57615;SDS011;43816;52.054;-9.494;2023-04-24T00:12:06;3.45;;;2.40;;
57615;SDS011;43816;52.054;-9.494;2023-04-24T00:12:26;3.83;;;2.50;;
57615;SDS011;43816;52.054;-9.494;2023-04-24T00:12:36;4.03;;;2.38;;
57615;SDS011;43816;52.054;-9.494;2023-04-24T00:12:50;3.78;;;2.25;;
57615;SDS011;43816;52.054;-9.494;2023-04-24T00:13:00;3.70;;;2.30;;
57615;SDS011;43816;52.054;-9.494;2023-04-24T00:13:10;3.77;;;2.27;;
57615;SDS011;43816;52.054;-9.494;2023-04-24T00:13:24;3.45;;;2.20;;
57615;SDS011;43816;52.054;-9.494;2023-04-24T00:13:35;3.45;;;2.40;;
57615;SDS011;43816;52.054;-9.494;2023-04-24T00:13:48;3.80;;;2.50;;
57615;SDS011;43816;52.054;-9.494;2023-04-24T00:14:01;3.75;;;2.50;;
57615;SDS011;43816;52.054;-9.494;2023-04-24T00:14:12;3.17;;;2.47;;
57615;SDS011;43816;52.054;-9.494;2023-04-24T00:14:22;3.55;;;2.47;;
57615;SDS011;43816;52.054;-9.494;2023-04-24T00:14:32;3.80;;;2.50;;
57615;SDS011;43816;52.054;-9.494;2023-04-24T00:14:52;3.53;;;2.42;;
57615;SDS011;43816;52.054;-9.494;2023-04-24T00:15:03;3.37;;;2.40;;
57615;SDS011;43816;52.054;-9.494;2023-04-24T00:15:14;2.97;;;2.33;;
57615;SDS011;43816;52.054;-9.494;2023-04-24T00:15:24;2.77;;;2.40;;
57615;SDS011;43816;52.054;-9.494;2023-04-24T00:15:34;2.97;;;2.43;;
57615;SDS011;43816;52.054;-9.494;2023-04-24T00:15:45;3.40;;;2.45;;
57615;SDS011;43816;52.054;-9.494;2023-04-24T00:15:55;3.40;;;2.30;;
57615;SDS011;43816;52.054;-9.494;2023-04-24T00:16:08;3.25;;;2.20;;
57615;SDS011;43816;52.054;-9.494;2023-04-24T00:16:22;3.67;;;2.25;;
57615;SDS011;43816;52.054;-9.494;2023-04-24T00:16:35;3.28;;;2.20;;
57615;SDS011;43816;52.054;-9.494;2023-04-24T00:16:46;2.97;;;2.10;;
57615;SDS011;43816;52.054;-9.494;2023-04-24T00:16:56;3.37;;;2.20;;
57615;SDS011;43816;52.054;-9.494;2023-04-24T00:17:06;3.53;;;2.22;;
57615;SDS011;43816;52.054;-9.494;2023-04-24T00:17:17;3.07;;;2.27;;
57615;SDS011;43816;52.054;-9.494;2023-04-24T00:17:27;3.23;;;2.20;;
57615;SDS011;43816;52.054;-9.494;2023-04-24T00:17:37;3.13;;;2.25;;
57615;SDS011;43816;52.054;-9.494;2023-04-24T00:17:48;3.20;;;2.20;;
57615;SDS011;43816;52.054;-9.494;2023-04-24T00:17:58;2.97;;;2.13;;
57615;SDS011;43816;52.054;-9.494;2023-04-24T00:18:08;2.83;;;2.08;;
57615;SDS011;43816;52.054;-9.494;2023-04-24T00:18:19;2.83;;;2.27;;
57615;SDS011;43816;52.054;-9.494;2023-04-24T00:18:29;3.00;;;2.47;;
57615;SDS011;43816;52.054;-9.494;2023-04-24T00:18:39;3.13;;;2.50;;
57615;SDS011;43816;52.054;-9.494;2023-04-24T00:18:52;3.10;;;2.38;;
57615;SDS011;43816;52.054;-9.494;2023-04-24T00:19:03;3.00;;;2.23;;
57615;SDS011;43816;52.054;-9.494;2023-04-24T00:19:13;2.90;;;2.10;;
57615;SDS011;43816;52.054;-9.494;2023-04-24T00:19:23;2.80;;;2.10;;
57615;SDS011;43816;52.054;-9.494;2023-04-24T00:19:33;2.73;;;2.20;;
57615;SDS011;43816;52.054;-9.494;2023-04-24T00:19:44;3.10;;;2.30;;
57615;SDS011;43816;52.054;-9.494;2023-04-24T00:19:57;3.47;;;2.35;;
57615;SDS011;43816;52.054;-9.494;2023-04-24T00:20:07;3.58;;;2.40;;
57615;SDS011;43816;52.054;-9.494;2023-04-24T00:20:18;3.75;;;2.35;;
57615;SDS011;43816;52.054;-9.494;2023-04-24T00:20:29;3.83;;;2.40;;
57615;SDS011;43816;52.054;-9.494;2023-04-24T00:20:39;4.30;;;2.50;;
57615;SDS011;43816;52.054;-9.494;2023-04-24T00:20:52;3.90;;;2.50;;
57615;SDS011;43816;52.054;-9.494;2023-04-24T00:21:06;3.75;;;2.40;;
57615;SDS011;43816;52.054;-9.494;2023-04-24T00:21:16;3.17;;;2.35;;
57615;SDS011;43816;52.054;-9.494;2023-04-24T00:21:29;3.15;;;2.30;;
57615;SDS011;43816;52.054;-9.494;2023-04-24T00:21:39;3.47;;;2.33;;
57615;SDS011;43816;52.054;-9.494;2023-04-24T00:21:50;3.38;;;2.40;;
57615;SDS011;43816;52.054;-9.494;2023-04-24T00:22:03;3.35;;;2.50;;
57615;SDS011;43816;52.054;-9.494;2023-04-24T00:22:14;4.93;;;2.60;;
57615;SDS011;43816;52.054;-9.494;2023-04-24T00:22:25;4.93;;;2.57;;
57615;SDS011;43816;52.054;-9.494;2023-04-24T00:22:35;4.97;;;2.40;;
57615;SDS011;43816;52.054;-9.494;2023-04-24T00:22:46;4.13;;;2.30;;
57615;SDS011;43816;52.054;-9.494;2023-04-24T00:22:59;4.07;;;2.40;;
57615;SDS011;43816;52.054;-9.494;2023-04-24T00:23:10;3.55;;;2.50;;
57615;SDS011;43816;52.054;-9.494;2023-04-24T00:23:20;3.13;;;2.50;;
57615;SDS011;43816;52.054;-9.494;2023-04-24T00:23:31;2.78;;;2.30;;
57615;SDS011;43816;52.054;-9.494;2023-04-24T00:23:41;2.60;;;2.30;;
57615;SDS011;43816;52.054;-9.494;2023-04-24T00:23:51;2.73;;;2.30;;
57615;SDS011;43816;52.054;-9.494;2023-04-24T00:24:05;3.67;;;2.40;;
57615;SDS011;43816;52.054;-9.494;2023-04-24T00:24:19;4.32;;;2.50;;
57615;SDS011;43816;52.054;-9.494;2023-04-24T00:24:34;4.13;;;2.60;;
57615;SDS011;43816;52.054;-9.494;2023-04-24T00:24:44;3.75;;;2.42;;
57615;SDS011;43816;52.054;-9.494;2023-04-24T00:24:54;3.33;;;2.58;;
57615;SDS011;43816;52.054;-9.494;2023-04-24T00:25:05;3.17;;;2.50;;
57615;SDS011;43816;52.054;-9.494;2023-04-24T00:25:18;3.33;;;2.53;;
57615;SDS011;43816;52.054;-9.494;2023-04-24T00:25:28;3.58;;;2.42;;
57615;SDS011;43816;52.054;-9.494;2023-04-24T00:25:39;4.77;;;2.50;;
57615;SDS011;43816;52.054;-9.494;2023-04-24T00:25:49;4.68;;;2.50;;
57615;SDS011;43816;52.054;-9.494;2023-04-24T00:25:59;4.20;;;2.50;;
57615;SDS011;43816;52.054;-9.494;2023-04-24T00:26:13;3.67;;;2.53;;
57615;SDS011;43816;52.054;-9.494;2023-04-24T00:26:24;3.70;;;2.40;;
57615;SDS011;43816;52.054;-9.494;2023-04-24T00:26:34;4.13;;;2.42;;
57615;SDS011;43816;52.054;-9.494;2023-04-24T00:26:44;4.47;;;2.40;;
57615;SDS011;43816;52.054;-9.494;2023-04-24T00:26:55;4.53;;;2.53;;
57615;SDS011;43816;52.054;-9.494;2023-04-24T00:27:05;3.95;;;2.40;;
57615;SDS011;43816;52.054;-9.494;2023-04-24T00:27:15;3.73;;;2.40;;
57615;SDS011;43816;52.054;-9.494;2023-04-24T00:27:26;3.27;;;2.37;;
57615;SDS011;43816;52.054;-9.494;2023-04-24T00:27:36;3.58;;;2.42;;
57615;SDS011;43816;52.054;-9.494;2023-04-24T00:27:46;3.60;;;2.57;;
57615;SDS011;43816;52.054;-9.494;2023-04-24T00:27:57;3.90;;;2.63;;
57615;SDS011;43816;52.054;-9.494;2023-04-24T00:28:07;3.73;;;2.60;;
57615;SDS011;43816;52.054;-9.494;2023-04-24T00:28:17;4.03;;;2.40;;
57615;SDS011;43816;52.054;-9.494;2023-04-24T00:28:28;3.92;;;2.47;;
57615;SDS011;43816;52.054;-9.494;2023-04-24T00:28:38;4.03;;;2.40;;
57615;SDS011;43816;52.054;-9.494;2023-04-24T00:28:59;3.65;;;2.45;;
57615;SDS011;43816;52.054;-9.494;2023-04-24T00:29:10;3.10;;;2.40;;
57615;SDS011;43816;52.054;-9.494;2023-04-24T00:29:35;4.15;;;2.50;;
57615;SDS011;43816;52.054;-9.494;2023-04-24T00:29:45;5.07;;;2.73;;
57615;SDS011;43816;52.054;-9.494;2023-04-24T00:30:02;4.63;;;2.72;;
57615;SDS011;43816;52.054;-9.494;2023-04-24T00:30:12;4.22;;;2.70;;
57615;SDS011;43816;52.054;-9.494;2023-04-24T00:30:46;4.07;;;2.72;;
57615;SDS011;43816;52.054;-9.494;2023-04-24T00:30:56;4.25;;;3.00;;
57615;SDS011;43816;52.054;-9.494;2023-04-24T00:31:07;3.50;;;2.80;;
57615;SDS011;43816;52.054;-9.494;2023-04-24T00:31:25;3.47;;;2.60;;
57615;SDS011;43816;52.054;-9.494;2023-04-24T00:31:35;3.28;;;2.53;;
57615;SDS011;43816;52.054;-9.494;2023-04-24T00:31:45;3.80;;;2.47;;
57615;SDS011;43816;52.054;-9.494;2023-04-24T00:31:56;4.20;;;2.60;;
57615;SDS011;43816;52.054;-9.494;2023-04-24T00:32:12;4.07;;;2.70;;
57615;SDS011;43816;52.054;-9.494;2023-04-24T00:32:29;3.85;;;2.60;;
57615;SDS011;43816;52.054;-9.494;2023-04-24T00:32:39;4.10;;;2.70;;
57615;SDS011;43816;52.054;-9.494;2023-04-24T00:32:50;3.50;;;2.67;;
57615;SDS011;43816;52.054;-9.494;2023-04-24T00:33:00;3.55;;;2.60;;
57615;SDS011;43816;52.054;-9.494;2023-04-24T00:33:10;3.10;;;2.40;;
57615;SDS011;43816;52.054;-9.494;2023-04-24T00:33:24;3.30;;;2.50;;
57615;SDS011;43816;52.054;-9.494;2023-04-24T00:33:34;2.72;;;2.50;;
57615;SDS011;43816;52.054;-9.494;2023-04-24T00:33:47;3.27;;;2.60;;
57615;SDS011;43816;52.054;-9.494;2023-04-24T00:34:01;4.40;;;2.80;;
57615;SDS011;43816;52.054;-9.494;2023-04-24T00:34:14;4.00;;;2.55;;
57615;SDS011;43816;52.054;-9.494;2023-04-24T00:34:24;3.33;;;2.47;;
57615;SDS011;43816;52.054;-9.494;2023-04-24T00:34:35;3.67;;;2.60;;
57615;SDS011;43816;52.054;-9.494;2023-04-24T00:34:47;3.85;;;2.50;;
57615;SDS011;43816;52.054;-9.494;2023-04-24T00:35:00;3.83;;;2.50;;
57615;SDS011;43816;52.054;-9.494;2023-04-24T00:35:10;4.00;;;2.63;;
57615;SDS011;43816;52.054;-9.494;2023-04-24T00:35:21;4.50;;;2.75;;
57615;SDS011;43816;52.054;-9.494;2023-04-24T00:35:31;4.17;;;2.70;;
57615;SDS011;43816;52.054;-9.494;2023-04-24T00:35:41;3.97;;;2.90;;
57615;SDS011;43816;52.054;-9.494;2023-04-24T00:35:54;3.50;;;2.90;;
57615;SDS011;43816;52.054;-9.494;2023-04-24T00:36:05;3.28;;;2.83;;
57615;SDS011;43816;52.054;-9.494;2023-04-24T00:36:15;3.63;;;2.80;;
57615;SDS011;43816;52.054;-9.494;2023-04-24T00:36:31;3.78;;;2.80;;
57615;SDS011;43816;52.054;-9.494;2023-04-24T00:36:41;3.63;;;2.65;;
57615;SDS011;43816;52.054;-9.494;2023-04-24T00:36:52;4.03;;;2.70;;
57615;SDS011;43816;52.054;-9.494;2023-04-24T00:37:02;4.60;;;2.80;;
57615;SDS011;43816;52.054;-9.494;2023-04-24T00:37:12;4.63;;;3.10;;
57615;SDS011;43816;52.054;-9.494;2023-04-24T00:37:22;4.35;;;3.03;;
57615;SDS011;43816;52.054;-9.494;2023-04-24T00:37:33;3.83;;;2.80;;
57615;SDS011;43816;52.054;-9.494;2023-04-24T00:37:43;3.53;;;2.50;;
57615;SDS011;43816;52.054;-9.494;2023-04-24T00:37:56;3.37;;;2.70;;
57615;SDS011;43816;52.054;-9.494;2023-04-24T00:38:12;4.50;;;2.90;;
57615;SDS011;43816;52.054;-9.494;2023-04-24T00:38:23;4.60;;;2.90;;
57615;SDS011;43816;52.054;-9.494;2023-04-24T00:38:33;3.97;;;2.83;;
57615;SDS011;43816;52.054;-9.494;2023-04-24T00:38:44;3.33;;;2.63;;
57615;SDS011;43816;52.054;-9.494;2023-04-24T00:38:54;3.35;;;2.60;;
57615;SDS011;43816;52.054;-9.494;2023-04-24T00:39:05;3.60;;;2.50;;
57615;SDS011;43816;52.054;-9.494;2023-04-24T00:39:15;3.80;;;2.50;;
57615;SDS011;43816;52.054;-9.494;2023-04-24T00:39:25;3.47;;;2.40;;
57615;SDS011;43816;52.054;-9.494;2023-04-24T00:39:35;3.47;;;2.60;;
57615;SDS011;43816;52.054;-9.494;2023-04-24T00:39:46;3.67;;;2.70;;
57615;SDS011;43816;52.054;-9.494;2023-04-24T00:39:56;4.20;;;2.83;;
57615;SDS011;43816;52.054;-9.494;2023-04-24T00:40:06;4.20;;;2.77;;
57615;SDS011;43816;52.054;-9.494;2023-04-24T00:40:20;4.20;;;2.72;;
57615;SDS011;43816;52.054;-9.494;2023-04-24T00:40:30;3.67;;;2.70;;
57615;SDS011;43816;52.054;-9.494;2023-04-24T00:40:44;3.92;;;2.80;;
57615;SDS011;43816;52.054;-9.494;2023-04-24T00:40:54;4.43;;;3.00;;
57615;SDS011;43816;52.054;-9.494;2023-04-24T00:41:05;5.10;;;2.97;;
57615;SDS011;43816;52.054;-9.494;2023-04-24T00:41:18;4.93;;;2.90;;
57615;SDS011;43816;52.054;-9.494;2023-04-24T00:41:31;3.40;;;2.60;;
57615;SDS011;43816;52.054;-9.494;2023-04-24T00:41:51;3.45;;;2.60;;
57615;SDS011;43816;52.054;-9.494;2023-04-24T00:42:02;3.60;;;2.63;;
57615;SDS011;43816;52.054;-9.494;2023-04-24T00:42:12;3.57;;;2.57;;
57615;SDS011;43816;52.054;-9.494;2023-04-24T00:42:23;3.55;;;2.58;;
57615;SDS011;43816;52.054;-9.494;2023-04-24T00:42:34;4.05;;;2.78;;
57615;SDS011;43816;52.054;-9.494;2023-04-24T00:42:44;4.20;;;2.90;;
57615;SDS011;43816;52.054;-9.494;2023-04-24T00:42:55;4.03;;;2.85;;
57615;SDS011;43816;52.054;-9.494;2023-04-24T00:43:05;3.72;;;2.80;;
57615;SDS011;43816;52.054;-9.494;2023-04-24T00:43:16;4.00;;;2.90;;
57615;SDS011;43816;52.054;-9.494;2023-04-24T00:43:27;3.95;;;2.75;;
57615;SDS011;43816;52.054;-9.494;2023-04-24T00:43:37;3.63;;;2.57;;
57615;SDS011;43816;52.054;-9.494;2023-04-24T00:43:51;3.92;;;2.65;;
57615;SDS011;43816;52.054;-9.494;2023-04-24T00:44:04;3.85;;;2.80;;
57615;SDS011;43816;52.054;-9.494;2023-04-24T00:44:14;3.15;;;2.63;;
57615;SDS011;43816;52.054;-9.494;2023-04-24T00:44:25;3.07;;;2.50;;
57615;SDS011;43816;52.054;-9.494;2023-04-24T00:44:35;3.37;;;2.67;;
57615;SDS011;43816;52.054;-9.494;2023-04-24T00:44:45;4.30;;;2.88;;
57615;SDS011;43816;52.054;-9.494;2023-04-24T00:44:56;4.37;;;2.80;;
57615;SDS011;43816;52.054;-9.494;2023-04-24T00:45:07;4.47;;;2.80;;
57615;SDS011;43816;52.054;-9.494;2023-04-24T00:45:18;4.27;;;2.70;;
57615;SDS011;43816;52.054;-9.494;2023-04-24T00:45:29;4.63;;;2.72;;
57615;SDS011;43816;52.054;-9.494;2023-04-24T00:45:39;4.25;;;2.80;;
57615;SDS011;43816;52.054;-9.494;2023-04-24T00:45:50;3.93;;;2.83;;
57615;SDS011;43816;52.054;-9.494;2023-04-24T00:46:00;3.63;;;2.85;;
57615;SDS011;43816;52.054;-9.494;2023-04-24T00:46:10;3.97;;;2.83;;
57615;SDS011;43816;52.054;-9.494;2023-04-24T00:46:22;4.57;;;2.85;;
57615;SDS011;43816;52.054;-9.494;2023-04-24T00:46:32;4.78;;;2.80;;
57615;SDS011;43816;52.054;-9.494;2023-04-24T00:46:42;4.47;;;2.70;;
57615;SDS011;43816;52.054;-9.494;2023-04-24T00:46:56;4.22;;;3.13;;
57615;SDS011;43816;52.054;-9.494;2023-04-24T00:47:09;3.80;;;3.30;;
57615;SDS011;43816;52.054;-9.494;2023-04-24T00:47:20;3.67;;;3.10;;
57615;SDS011;43816;52.054;-9.494;2023-04-24T00:47:32;3.83;;;3.00;;
57615;SDS011;43816;52.054;-9.494;2023-04-24T00:47:43;3.63;;;2.80;;
57615;SDS011;43816;52.054;-9.494;2023-04-24T00:47:54;3.63;;;2.78;;
57615;SDS011;43816;52.054;-9.494;2023-04-24T00:48:04;4.27;;;2.90;;
57615;SDS011;43816;52.054;-9.494;2023-04-24T00:48:15;4.53;;;2.78;;
57615;SDS011;43816;52.054;-9.494;2023-04-24T00:48:26;4.53;;;2.70;;
57615;SDS011;43816;52.054;-9.494;2023-04-24T00:48:40;3.78;;;2.60;;
57615;SDS011;43816;52.054;-9.494;2023-04-24T00:48:50;4.60;;;2.88;;
57615;SDS011;43816;52.054;-9.494;2023-04-24T00:49:00;4.30;;;2.80;;
57615;SDS011;43816;52.054;-9.494;2023-04-24T00:49:12;4.50;;;2.80;;
57615;SDS011;43816;52.054;-9.494;2023-04-24T00:49:26;3.47;;;2.70;;
57615;SDS011;43816;52.054;-9.494;2023-04-24T00:49:36;2.97;;;2.60;;
57615;SDS011;43816;52.054;-9.494;2023-04-24T00:49:47;2.97;;;2.60;;
57615;SDS011;43816;52.054;-9.494;2023-04-24T00:49:57;3.77;;;2.73;;
57615;SDS011;43816;52.054;-9.494;2023-04-24T00:50:17;4.60;;;2.92;;
57615;SDS011;43816;52.054;-9.494;2023-04-24T00:50:28;4.13;;;2.70;;
57615;SDS011;43816;52.054;-9.494;2023-04-24T00:50:38;3.90;;;2.70;;
57615;SDS011;43816;52.054;-9.494;2023-04-24T00:50:49;3.95;;;2.67;;
57615;SDS011;43816;52.054;-9.494;2023-04-24T00:50:59;4.23;;;2.90;;
57615;SDS011;43816;52.054;-9.494;2023-04-24T00:51:12;4.47;;;3.00;;
57615;SDS011;43816;52.054;-9.494;2023-04-24T00:51:25;3.42;;;2.70;;
57615;SDS011;43816;52.054;-9.494;2023-04-24T00:51:36;2.70;;;2.47;;
57615;SDS011;43816;52.054;-9.494;2023-04-24T00:51:46;3.25;;;2.60;;
57615;SDS011;43816;52.054;-9.494;2023-04-24T00:51:57;4.03;;;2.70;;
57615;SDS011;43816;52.054;-9.494;2023-04-24T00:52:07;4.22;;;2.75;;
57615;SDS011;43816;52.054;-9.494;2023-04-24T00:52:23;4.55;;;3.10;;
57615;SDS011;43816;52.054;-9.494;2023-04-24T00:52:34;4.53;;;3.10;;
57615;SDS011;43816;52.054;-9.494;2023-04-24T00:52:44;4.55;;;3.05;;
57615;SDS011;43816;52.054;-9.494;2023-04-24T00:52:57;4.20;;;2.80;;
57615;SDS011;43816;52.054;-9.494;2023-04-24T00:53:08;4.07;;;2.90;;
57615;SDS011;43816;52.054;-9.494;2023-04-24T00:53:18;3.88;;;2.90;;
57615;SDS011;43816;52.054;-9.494;2023-04-24T00:53:29;3.72;;;2.90;;
57615;SDS011;43816;52.054;-9.494;2023-04-24T00:53:39;3.77;;;2.90;;
57615;SDS011;43816;52.054;-9.494;2023-04-24T00:53:49;4.13;;;3.00;;
57615;SDS011;43816;52.054;-9.494;2023-04-24T00:54:00;4.57;;;3.20;;
57615;SDS011;43816;52.054;-9.494;2023-04-24T00:54:22;4.43;;;3.17;;
57615;SDS011;43816;52.054;-9.494;2023-04-24T00:54:48;4.30;;;3.05;;
57615;SDS011;43816;52.054;-9.494;2023-04-24T00:54:59;4.18;;;3.08;;
57615;SDS011;43816;52.054;-9.494;2023-04-24T00:55:09;4.53;;;3.20;;
57615;SDS011;43816;52.054;-9.494;2023-04-24T00:55:19;4.40;;;3.13;;
57615;SDS011;43816;52.054;-9.494;2023-04-24T00:55:30;4.55;;;3.17;;
57615;SDS011;43816;52.054;-9.494;2023-04-24T00:55:41;4.22;;;3.00;;
57615;SDS011;43816;52.054;-9.494;2023-04-24T00:55:52;4.18;;;3.00;;
57615;SDS011;43816;52.054;-9.494;2023-04-24T00:56:03;3.78;;;2.90;;
57615;SDS011;43816;52.054;-9.494;2023-04-24T00:56:14;3.50;;;2.90;;
57615;SDS011;43816;52.054;-9.494;2023-04-24T00:56:24;3.60;;;2.85;;
57615;SDS011;43816;52.054;-9.494;2023-04-24T00:56:38;3.65;;;2.85;;
57615;SDS011;43816;52.054;-9.494;2023-04-24T00:56:50;3.72;;;2.90;;
57615;SDS011;43816;52.054;-9.494;2023-04-24T00:57:00;3.43;;;2.80;;
57615;SDS011;43816;52.054;-9.494;2023-04-24T00:57:13;4.10;;;3.00;;
57615;SDS011;43816;52.054;-9.494;2023-04-24T00:57:24;3.95;;;2.92;;
57615;SDS011;43816;52.054;-9.494;2023-04-24T00:57:35;4.17;;;3.00;;
57615;SDS011;43816;52.054;-9.494;2023-04-24T00:57:45;5.05;;;3.20;;
57615;SDS011;43816;52.054;-9.494;2023-04-24T00:57:59;5.25;;;3.33;;
57615;SDS011;43816;52.054;-9.494;2023-04-24T00:58:12;5.28;;;3.38;;
57615;SDS011;43816;52.054;-9.494;2023-04-24T00:58:25;4.88;;;3.20;;
57615;SDS011;43816;52.054;-9.494;2023-04-24T00:58:36;4.22;;;3.08;;
57615;SDS011;43816;52.054;-9.494;2023-04-24T00:58:46;3.72;;;3.05;;
57615;SDS011;43816;52.054;-9.494;2023-04-24T00:58:57;3.67;;;3.20;;
57615;SDS011;43816;52.054;-9.494;2023-04-24T00:59:08;4.23;;;3.20;;
57615;SDS011;43816;52.054;-9.494;2023-04-24T00:59:18;4.13;;;3.13;;
57615;SDS011;43816;52.054;-9.494;2023-04-24T00:59:29;4.03;;;3.10;;
57615;SDS011;43816;52.054;-9.494;2023-04-24T00:59:39;3.90;;;3.15;;
57615;SDS011;43816;52.054;-9.494;2023-04-24T00:59:51;4.18;;;3.15;;
57615;SDS011;43816;52.054;-9.494;2023-04-24T01:00:02;3.78;;;3.00;;
57615;SDS011;43816;52.054;-9.494;2023-04-24T01:00:14;3.72;;;2.97;;
57615;SDS011;43816;52.054;-9.494;2023-04-24T01:00:25;4.30;;;3.10;;
57615;SDS011;43816;52.054;-9.494;2023-04-24T01:00:36;4.78;;;3.00;;
57615;SDS011;43816;52.054;-9.494;2023-04-24T01:00:46;4.53;;;3.10;;
57615;SDS011;43816;52.054;-9.494;2023-04-24T01:00:59;4.32;;;3.20;;
57615;SDS011;43816;52.054;-9.494;2023-04-24T01:01:09;4.07;;;3.40;;
57615;SDS011;43816;52.054;-9.494;2023-04-24T01:01:20;4.20;;;3.30;;
57615;SDS011;43816;52.054;-9.494;2023-04-24T01:01:31;4.35;;;3.13;;
57615;SDS011;43816;52.054;-9.494;2023-04-24T01:01:41;5.10;;;3.07;;
57615;SDS011;43816;52.054;-9.494;2023-04-24T01:01:55;5.28;;;3.17;;
57615;SDS011;43816;52.054;-9.494;2023-04-24T01:02:07;4.95;;;3.10;;
57615;SDS011;43816;52.054;-9.494;2023-04-24T01:02:19;4.85;;;2.90;;
57615;SDS011;43816;52.054;-9.494;2023-04-24T01:02:30;4.70;;;2.94;;
57615;SDS011;43816;52.054;-9.494;2023-04-24T01:02:43;3.70;;;2.80;;
57615;SDS011;43816;52.054;-9.494;2023-04-24T01:02:54;4.10;;;3.00;;
57615;SDS011;43816;52.054;-9.494;2023-04-24T01:03:05;4.18;;;3.10;;
57615;SDS011;43816;52.054;-9.494;2023-04-24T01:03:20;3.95;;;3.03;;
57615;SDS011;43816;52.054;-9.494;2023-04-24T01:03:32;3.40;;;2.72;;
57615;SDS011;43816;52.054;-9.494;2023-04-24T01:03:43;3.38;;;2.60;;
57615;SDS011;43816;52.054;-9.494;2023-04-24T01:03:54;3.60;;;2.80;;
57615;SDS011;43816;52.054;-9.494;2023-04-24T01:04:06;4.30;;;3.25;;
57615;SDS011;43816;52.054;-9.494;2023-04-24T01:04:16;4.23;;;3.30;;
57615;SDS011;43816;52.054;-9.494;2023-04-24T01:04:27;4.05;;;3.15;;
57615;SDS011;43816;52.054;-9.494;2023-04-24T01:04:38;4.20;;;3.28;;
57615;SDS011;43816;52.054;-9.494;2023-04-24T01:04:49;4.47;;;3.20;;
57615;SDS011;43816;52.054;-9.494;2023-04-24T01:05:01;4.53;;;3.22;;
57615;SDS011;43816;52.054;-9.494;2023-04-24T01:05:15;4.75;;;3.20;;
57615;SDS011;43816;52.054;-9.494;2023-04-24T01:05:25;5.20;;;3.50;;
57615;SDS011;43816;52.054;-9.494;2023-04-24T01:05:36;4.50;;;3.43;;
57615;SDS011;43816;52.054;-9.494;2023-04-24T01:05:49;3.80;;;3.25;;
57615;SDS011;43816;52.054;-9.494;2023-04-24T01:06:07;3.80;;;3.00;;
57615;SDS011;43816;52.054;-9.494;2023-04-24T01:06:19;4.15;;;2.95;;
57615;SDS011;43816;52.054;-9.494;2023-04-24T01:06:30;4.13;;;3.03;;
57615;SDS011;43816;52.054;-9.494;2023-04-24T01:06:44;3.83;;;3.05;;
57615;SDS011;43816;52.054;-9.494;2023-04-24T01:06:58;4.18;;;3.03;;
57615;SDS011;43816;52.054;-9.494;2023-04-24T01:07:11;4.50;;;3.20;;
57615;SDS011;43816;52.054;-9.494;2023-04-24T01:07:21;3.95;;;3.17;;
57615;SDS011;43816;52.054;-9.494;2023-04-24T01:07:32;3.58;;;2.95;;
57615;SDS011;43816;52.054;-9.494;2023-04-24T01:07:43;3.97;;;2.90;;
57615;SDS011;43816;52.054;-9.494;2023-04-24T01:07:58;4.13;;;3.15;;
57615;SDS011;43816;52.054;-9.494;2023-04-24T01:08:09;3.88;;;3.28;;
57615;SDS011;43816;52.054;-9.494;2023-04-24T01:08:19;4.07;;;3.13;;
57615;SDS011;43816;52.054;-9.494;2023-04-24T01:08:34;4.68;;;3.05;;
57615;SDS011;43816;52.054;-9.494;2023-04-24T01:08:56;5.32;;;3.20;;
57615;SDS011;43816;52.054;-9.494;2023-04-24T01:09:08;5.10;;;3.20;;
57615;SDS011;43816;52.054;-9.494;2023-04-24T01:09:21;5.30;;;3.20;;
57615;SDS011;43816;52.054;-9.494;2023-04-24T01:09:38;4.72;;;3.20;;
57615;SDS011;43816;52.054;-9.494;2023-04-24T01:09:50;4.38;;;3.20;;